Time;durP1;ratioP1;P1;durP2;ratioP2;P2;SDS_P1;SDS_P2;PMS_P1;PMS_P2;Temp;Humidity;BMP_temperature;BMP_pressure;BME280_temperature;BME280_humidity;BME280_pressure;Samples;Min_cycle;Max_cycle;Signal;HPM_P1;HPM_P2
2022/06/20 00:02:24;;;;;;;1.63;0.55;;;22.10;55.40;;;;;;4430721;32;20168;-67
2022/06/20 00:04:53;;;;;;;3.42;1.00;;;22.10;55.40;;;;;;4430567;32;20122;-67
2022/06/20 00:07:20;;;;;;;1.63;0.70;;;22.10;55.50;;;;;;4430243;32;20491;-67
2022/06/20 00:09:47;;;;;;;2.08;0.60;;;22.10;55.50;;;;;;4430242;32;20066;-68
2022/06/20 00:12:21;;;;;;;4.60;0.73;;;22.10;55.40;;;;;;4430471;32;20157;-67
2022/06/20 00:14:53;;;;;;;1.77;0.93;;;22.10;55.40;;;;;;4430595;32;20176;-67
2022/06/20 00:17:20;;;;;;;2.35;0.80;;;22.10;55.40;;;;;;4430569;32;20134;-67
2022/06/20 00:19:46;;;;;;;1.48;0.70;;;22.10;55.40;;;;;;4430481;32;20102;-68
2022/06/20 00:22:13;;;;;;;1.27;0.60;;;22.10;55.50;;;;;;4430419;32;20164;-67
2022/06/20 00:24:40;;;;;;;1.13;0.50;;;22.00;55.40;;;;;;4416623;32;20113;-67
2022/06/20 00:27:07;;;;;;;1.75;0.70;;;22.00;55.40;;;;;;4430373;32;20168;-68
2022/06/20 00:29:35;;;;;;;1.63;0.50;;;22.10;55.40;;;;;;4430209;32;20598;-68
2022/06/20 00:32:03;;;;;;;0.93;0.40;;;22.00;55.40;;;;;;4430087;32;20101;-68
2022/06/20 00:34:29;;;;;;;1.45;0.40;;;22.00;55.40;;;;;;4430286;32;20165;-68
2022/06/20 00:36:56;;;;;;;1.67;0.63;;;22.00;55.40;;;;;;4429994;32;20273;-68
2022/06/20 00:39:23;;;;;;;2.15;0.77;;;22.00;55.50;;;;;;4403614;32;20086;-68
2022/06/20 00:41:51;;;;;;;1.63;0.65;;;22.00;55.40;;;;;;4430032;32;20094;-68
2022/06/20 00:44:27;;;;;;;2.42;0.73;;;22.00;55.40;;;;;;4430220;32;20161;-68
2022/06/20 00:46:59;;;;;;;1.20;0.60;;;22.00;55.50;;;;;;4429683;32;20196;-68
2022/06/20 00:49:49;;;;;;;1.80;0.70;;;22.00;55.50;;;;;;4430105;32;20508;-69
2022/06/20 00:52:28;;;;;;;1.90;0.73;;;22.00;55.40;;;;;;4430232;32;20164;-67
2022/06/20 00:55:15;;;;;;;1.13;0.47;;;22.00;55.50;;;;;;4429893;32;20257;-68
2022/06/20 00:57:57;;;;;;;1.95;0.60;;;22.00;55.40;;;;;;4398701;32;20192;-68
2022/06/20 01:00:28;;;;;;;2.00;0.75;;;22.00;55.50;;;;;;4430110;32;20090;-69
2022/06/20 01:03:03;;;;;;;1.98;0.57;;;22.00;55.50;;;;;;4430005;32;20094;-68
2022/06/20 01:05:41;;;;;;;1.02;0.52;;;22.00;55.50;;;;;;4430039;32;20661;-68
2022/06/20 01:08:25;;;;;;;1.67;0.55;;;22.00;55.60;;;;;;4429956;32;20160;-68
2022/06/20 01:10:58;;;;;;;2.08;0.60;;;22.00;55.50;;;;;;4429997;32;20169;-68
2022/06/20 01:13:28;;;;;;;1.35;0.40;;;22.00;55.50;;;;;;4430226;32;20476;-68
2022/06/20 01:16:00;;;;;;;1.75;0.50;;;22.00;55.60;;;;;;4429537;32;20071;-68
2022/06/20 01:18:31;;;;;;;1.60;0.50;;;22.00;55.50;;;;;;4429839;32;20170;-68
2022/06/20 01:20:59;;;;;;;2.13;0.73;;;22.00;55.60;;;;;;4416114;32;20097;-68
2022/06/20 01:23:51;;;;;;;1.23;0.50;;;22.00;55.60;;;;;;4429749;32;20098;-69
2022/06/20 01:26:29;;;;;;;3.35;0.63;;;21.90;55.50;;;;;;4430149;32;20373;-68
2022/06/20 01:29:00;;;;;;;3.15;0.70;;;21.90;55.60;;;;;;4431437;32;20097;-68
2022/06/20 01:31:30;;;;;;;1.75;0.47;;;21.90;55.60;;;;;;4432804;32;20172;-68
2022/06/20 01:34:00;;;;;;;3.78;0.63;;;21.90;56.50;;;;;;4432806;32;20090;-68
2022/06/20 01:39:16;;;;;;;1.35;0.57;;;21.90;55.60;;;;;;4432910;32;20094;-68
2022/06/20 01:44:31;;;;;;;1.48;0.70;;;21.90;55.60;;;;;;4432822;32;20461;-68
2022/06/20 01:46:58;;;;;;;1.02;0.52;;;21.90;55.60;;;;;;4432348;32;20070;-68
2022/06/20 01:49:25;;;;;;;2.05;0.45;;;21.90;55.60;;;;;;4432665;32;20621;-68
2022/06/20 01:52:01;;;;;;;2.63;0.60;;;21.90;55.60;;;;;;4406287;32;20122;-68
2022/06/20 01:54:32;;;;;;;1.27;0.50;;;21.90;55.60;;;;;;4432635;32;20156;-68
2022/06/20 01:56:59;;;;;;;2.05;0.50;;;21.90;55.70;;;;;;4418942;32;20473;-68
2022/06/20 01:59:32;;;;;;;1.95;0.57;;;21.90;55.70;;;;;;4432541;32;20168;-69
2022/06/20 02:01:59;;;;;;;1.83;0.60;;;21.90;55.70;;;;;;4432603;32;20087;-68
2022/06/20 02:04:30;;;;;;;1.45;0.57;;;21.80;55.60;;;;;;4432461;32;20117;-69
2022/06/20 02:06:56;;;;;;;1.42;0.50;;;21.80;55.60;;;;;;4432798;32;20575;-68
2022/06/20 02:09:24;;;;;;;2.55;0.60;;;21.80;55.60;;;;;;4432895;32;20094;-68
2022/06/20 02:11:50;;;;;;;1.70;0.60;;;21.80;55.60;;;;;;4432147;32;20425;-68
2022/06/20 02:14:25;;;;;;;0.75;0.32;;;21.80;55.60;;;;;;4418617;32;20485;-68
2022/06/20 02:16:56;;;;;;;1.25;0.40;;;21.80;55.70;;;;;;4432177;32;20586;-72
2022/06/20 02:19:30;;;;;;;0.57;0.30;;;21.80;55.70;;;;;;4418264;32;20469;-68
2022/06/20 02:22:02;;;;;;;1.75;0.50;;;21.80;55.70;;;;;;4432360;32;20160;-68
2022/06/20 02:24:33;;;;;;;0.95;0.50;;;21.80;55.80;;;;;;4431968;32;20192;-68
2022/06/20 02:27:03;;;;;;;0.85;0.43;;;21.80;55.80;;;;;;4432228;32;20468;-68
2022/06/20 02:29:31;;;;;;;0.68;0.43;;;21.80;55.80;;;;;;4432073;32;20094;-68
2022/06/20 02:32:05;;;;;;;1.48;0.57;;;21.80;55.80;;;;;;4432024;32;20489;-68
2022/06/20 02:34:31;;;;;;;0.82;0.32;;;21.80;55.80;;;;;;4431912;32;20540;-68
2022/06/20 02:37:04;;;;;;;1.10;0.45;;;21.80;55.80;;;;;;4431465;32;20487;-68
2022/06/20 02:39:31;;;;;;;1.17;0.40;;;21.80;55.80;;;;;;4432162;32;20410;-69
2022/06/20 02:42:02;;;;;;;1.02;0.40;;;21.80;55.80;;;;;;4418187;32;20477;-68
2022/06/20 02:44:30;;;;;;;1.35;0.40;;;21.80;55.80;;;;;;4431925;32;20094;-68
2022/06/20 02:46:57;;;;;;;1.58;0.50;;;21.80;55.90;;;;;;4431701;32;20094;-68
2022/06/20 02:49:27;;;;;;;1.35;0.40;;;21.80;55.90;;;;;;4432047;32;20071;-68
2022/06/20 02:51:55;;;;;;;1.00;0.63;;;21.80;55.90;;;;;;4431770;32;20497;-68
2022/06/20 02:54:25;;;;;;;1.88;0.38;;;21.80;55.90;;;;;;4418029;32;20110;-69
2022/06/20 02:57:01;;;;;;;0.98;0.38;;;21.80;55.90;;;;;;4432084;32;20094;-68
2022/06/20 02:59:35;;;;;;;2.30;0.50;;;21.70;55.90;;;;;;4432028;32;20097;-68
2022/06/20 03:02:08;;;;;;;1.88;0.57;;;21.80;55.90;;;;;;4431665;32;20083;-68
2022/06/20 03:04:38;;;;;;;0.82;0.40;;;21.70;56.00;;;;;;4431696;32;20094;-68
2022/06/20 03:07:12;;;;;;;0.73;0.35;;;21.70;55.90;;;;;;4431911;32;20579;-68
2022/06/20 03:09:40;;;;;;;1.95;0.43;;;21.70;56.00;;;;;;4431651;32;20473;-68
2022/06/20 03:12:08;;;;;;;0.73;0.40;;;21.70;56.00;;;;;;4431246;32;20078;-68
2022/06/20 03:14:42;;;;;;;0.80;0.40;;;21.70;56.00;;;;;;4431057;32;20484;-68
2022/06/20 03:17:11;;;;;;;1.63;0.43;;;21.70;56.00;;;;;;4431052;32;20172;-69
2022/06/20 03:19:41;;;;;;;1.75;0.50;;;21.70;56.00;;;;;;4431229;32;20184;-68
2022/06/20 03:22:12;;;;;;;0.57;0.30;;;21.70;56.00;;;;;;4431227;32;20253;-68
2022/06/20 03:24:41;;;;;;;1.98;0.60;;;21.70;56.00;;;;;;4417081;32;20097;-68
2022/06/20 03:27:12;;;;;;;1.58;0.50;;;21.70;56.00;;;;;;4431132;32;20594;-68
2022/06/20 03:29:40;;;;;;;1.15;0.60;;;21.70;57.00;;;;;;4431424;32;20156;-68
2022/06/20 03:32:07;;;;;;;0.75;0.50;;;21.70;56.00;;;;;;4430787;32;20495;-68
2022/06/20 03:34:34;;;;;;;0.70;0.40;;;21.70;56.00;;;;;;4431084;32;20583;-68
2022/06/20 03:37:02;;;;;;;0.82;0.50;;;21.70;56.10;;;;;;4417260;32;20488;-68
2022/06/20 03:39:30;;;;;;;0.73;0.30;;;21.70;56.20;;;;;;4417357;32;20098;-68
2022/06/20 03:41:57;;;;;;;1.30;0.40;;;21.70;56.20;;;;;;4431351;32;20145;-68
2022/06/20 03:44:37;;;;;;;1.55;0.50;;;21.70;56.20;;;;;;4430952;32;20086;-68
2022/06/20 03:47:06;;;;;;;1.15;0.45;;;21.70;56.30;;;;;;4430761;32;20209;-68
2022/06/20 03:49:51;;;;;;;1.67;0.43;;;21.70;56.30;;;;;;4430943;32;20071;-68
2022/06/20 03:52:24;;;;;;;1.48;0.50;;;21.70;56.30;;;;;;4416468;32;20102;-68
2022/06/20 03:55:14;;;;;;;2.17;0.38;;;21.70;56.30;;;;;;4430603;32;20168;-68
2022/06/20 03:57:59;;;;;;;1.55;0.50;;;21.70;56.30;;;;;;4417111;32;20172;-68
2022/06/20 04:00:35;;;;;;;2.50;0.40;;;21.70;56.30;;;;;;4430778;32;20163;-68
2022/06/20 04:03:15;;;;;;;1.05;0.32;;;21.70;56.30;;;;;;4431028;32;20528;-68
2022/06/20 04:05:45;;;;;;;1.52;0.40;;;21.70;56.30;;;;;;4430444;32;20109;-68
2022/06/20 04:08:15;;;;;;;1.80;0.63;;;21.70;56.30;;;;;;4430761;32;20216;-68
2022/06/20 04:10:59;;;;;;;2.55;0.40;;;21.70;56.30;;;;;;4430708;32;20102;-68
2022/06/20 04:13:40;;;;;;;1.58;0.60;;;21.70;56.30;;;;;;4430612;32;20074;-68
2022/06/20 04:16:32;;;;;;;0.85;0.57;;;21.60;56.30;;;;;;4430643;32;20063;-68
2022/06/20 04:19:07;;;;;;;1.58;0.40;;;21.60;56.30;;;;;;4430468;32;20476;-68
2022/06/20 04:21:52;;;;;;;1.10;0.43;;;21.60;56.30;;;;;;4430801;32;20199;-68
2022/06/20 04:24:37;;;;;;;1.25;0.57;;;21.60;56.30;;;;;;4430463;32;20097;-68
2022/06/20 04:27:12;;;;;;;1.88;0.47;;;21.60;56.30;;;;;;4430276;32;20098;-68
2022/06/20 04:29:47;;;;;;;0.88;0.30;;;21.60;56.30;;;;;;4430673;32;20170;-68
2022/06/20 04:32:29;;;;;;;1.27;0.40;;;21.60;56.30;;;;;;4430412;32;20500;-68
2022/06/20 04:35:19;;;;;;;0.73;0.40;;;21.60;56.30;;;;;;4430390;32;20180;-68
2022/06/20 04:37:53;;;;;;;1.00;0.60;;;21.60;56.30;;;;;;4430046;32;20505;-68
2022/06/20 04:40:26;;;;;;;1.33;0.50;;;21.60;56.30;;;;;;4430268;32;20215;-68
2022/06/20 04:43:07;;;;;;;1.60;0.63;;;21.60;56.30;;;;;;4430304;32;20090;-70
2022/06/20 04:46:19;;;;;;;0.77;0.40;;;21.60;56.30;;;;;;4430142;32;20074;-68
2022/06/20 04:48:48;;;;;;;1.23;0.40;;;21.60;56.20;;;;;;4429345;32;20098;-68
2022/06/20 04:51:19;;;;;;;0.55;0.38;;;21.60;56.30;;;;;;4416094;32;20101;-68
2022/06/20 04:53:49;;;;;;;1.08;0.45;;;21.60;56.30;;;;;;4429874;32;20109;-68
2022/06/20 04:56:25;;;;;;;0.88;0.40;;;21.60;56.40;;;;;;4430051;32;20067;-68
2022/06/20 04:58:57;;;;;;;1.25;0.40;;;21.60;56.30;;;;;;4417219;32;20208;-68
2022/06/20 05:01:26;;;;;;;1.48;0.50;;;21.60;56.30;;;;;;4430036;32;20094;-68
2022/06/20 05:03:57;;;;;;;1.45;0.57;;;21.60;56.30;;;;;;4428994;32;20576;-68
2022/06/20 05:06:30;;;;;;;0.32;0.30;;;21.60;56.30;;;;;;4429925;32;20224;-68
2022/06/20 05:09:12;;;;;;;1.20;0.60;;;21.60;56.30;;;;;;4429806;32;20187;-68
2022/06/20 05:11:47;;;;;;;0.98;0.40;;;21.60;56.40;;;;;;4429987;32;20310;-68
2022/06/20 05:14:55;;;;;;;1.50;0.50;;;21.50;56.30;;;;;;4429892;32;20172;-68
2022/06/20 05:17:26;;;;;;;0.98;0.45;;;21.50;56.30;;;;;;4429985;32;20110;-71
2022/06/20 05:19:57;;;;;;;1.52;0.40;;;21.50;56.30;;;;;;4429686;32;20180;-68
2022/06/20 05:22:29;;;;;;;0.70;0.30;;;21.50;56.30;;;;;;4429890;32;20428;-68
2022/06/20 05:24:57;;;;;;;1.80;0.30;;;21.50;56.30;;;;;;4429611;32;20086;-68
2022/06/20 05:27:52;;;;;;;1.85;0.40;;;21.50;56.30;;;;;;4417993;32;20165;-68
2022/06/20 05:30:22;;;;;;;1.20;0.45;;;21.50;56.30;;;;;;4429587;32;20144;-68
2022/06/20 05:32:59;;;;;;;1.70;0.40;;;21.50;56.40;;;;;;4429499;32;20083;-68
2022/06/20 05:35:32;;;;;;;0.90;0.30;;;21.50;56.40;;;;;;4429869;32;20184;-68
2022/06/20 05:38:24;;;;;;;0.82;0.47;;;21.50;56.40;;;;;;4429476;32;20598;-68
2022/06/20 05:41:14;;;;;;;1.35;0.47;;;21.50;56.40;;;;;;4418114;32;20140;-68
2022/06/20 05:43:40;;;;;;;1.00;0.35;;;21.50;56.40;;;;;;4429712;32;20097;-68
2022/06/20 05:46:23;;;;;;;1.88;0.40;;;21.50;56.40;;;;;;4429112;32;20152;-68
2022/06/20 05:48:53;;;;;;;1.10;0.35;;;21.50;56.50;;;;;;4429712;32;20071;-68
2022/06/20 05:51:23;;;;;;;2.17;0.50;;;21.50;56.50;;;;;;4429383;32;20189;-67
2022/06/20 05:53:56;;;;;;;1.02;0.30;;;21.60;56.60;;;;;;4429510;32;20070;-68
2022/06/20 05:56:31;;;;;;;;;;;21.60;56.60;;;;;;4429865;32;20129;-68
2022/06/20 05:58:57;;;;;;;;;;;21.60;56.50;;;;;;4430049;32;20119;-68
2022/06/20 06:01:31;;;;;;;0.95;0.40;;;21.50;56.60;;;;;;4429329;32;19986;-68
2022/06/20 06:04:23;;;;;;;1.10;0.40;;;21.50;56.60;;;;;;4429653;32;20129;-68
2022/06/20 06:06:56;;;;;;;0.70;0.30;;;21.60;56.70;;;;;;4429361;32;20101;-68
2022/06/20 06:09:39;;;;;;;1.08;0.60;;;21.60;56.60;;;;;;4415391;32;20106;-68
2022/06/20 06:12:13;;;;;;;1.33;0.65;;;21.60;56.70;;;;;;4429367;32;20158;-68
2022/06/20 06:14:49;;;;;;;0.70;0.47;;;21.60;56.70;;;;;;4430460;32;20200;-67
2022/06/20 06:17:24;;;;;;;0.73;0.35;;;21.60;56.80;;;;;;4431759;32;20089;-68
2022/06/20 06:19:55;;;;;;;2.40;0.70;;;21.60;56.80;;;;;;4432127;32;20176;-68
2022/06/20 06:22:25;;;;;;;1.67;0.60;;;21.70;56.80;;;;;;4432383;32;20495;-67
2022/06/20 06:25:22;;;;;;;2.92;0.85;;;21.70;56.70;;;;;;4420572;32;20143;-67
2022/06/20 06:28:24;;;;;;;3.58;0.80;;;21.70;56.70;;;;;;4420594;32;20093;-68
2022/06/20 06:31:04;;;;;;;4.15;1.05;;;21.70;56.60;;;;;;4430872;32;20591;-68
2022/06/20 06:33:43;;;;;;;3.25;0.95;;;21.70;56.70;;;;;;4431928;32;20093;-67
2022/06/20 06:36:23;;;;;;;7.32;1.20;;;21.70;56.80;;;;;;4432089;32;20288;-68
2022/06/20 06:39:44;;;;;;;5.53;1.40;;;21.70;56.70;;;;;;4419939;32;20079;-67
2022/06/20 06:42:14;;;;;;;7.32;1.80;;;21.80;56.70;;;;;;4431812;32;20558;-67
2022/06/20 06:44:48;;;;;;;3.92;1.45;;;21.80;56.70;;;;;;4431342;32;20078;-68
2022/06/20 06:47:28;;;;;;;4.25;1.27;;;21.80;56.50;;;;;;4431929;32;20067;-68
2022/06/20 06:50:36;;;;;;;6.57;1.40;;;21.90;56.50;;;;;;4420201;32;20528;-68
2022/06/20 06:53:43;;;;;;;3.60;1.25;;;22.00;56.50;;;;;;4419909;32;20126;-67
2022/06/20 06:56:24;;;;;;;4.32;1.35;;;22.00;56.40;;;;;;4431365;32;20074;-67
2022/06/20 06:59:04;;;;;;;4.53;1.48;;;22.00;56.50;;;;;;4431549;32;20156;-68
2022/06/20 07:01:38;;;;;;;5.57;1.30;;;22.10;56.50;;;;;;4431782;32;20085;-68
2022/06/20 07:04:24;;;;;;;;;;;22.10;56.40;;;;;;4431959;32;20078;-68
2022/06/20 07:07:23;;;;;;;6.10;1.75;;;22.10;56.40;;;;;;4417333;32;19967;-68
2022/06/20 07:09:51;;;;;;;4.90;1.45;;;22.20;56.30;;;;;;4431416;32;20075;-67
2022/06/20 07:12:30;;;;;;;2.92;1.10;;;22.20;56.30;;;;;;4431267;32;20419;-67
2022/06/20 07:15:22;;;;;;;4.43;1.30;;;22.30;56.30;;;;;;4419659;32;20163;-67
2022/06/20 07:17:47;;;;;;;5.35;1.30;;;22.30;56.40;;;;;;4431495;32;20094;-67
2022/06/20 07:20:15;;;;;;;8.13;1.50;;;22.40;56.40;;;;;;4417382;32;20498;-67
2022/06/20 07:23:05;;;;;;;6.18;1.55;;;22.40;56.30;;;;;;4419800;32;20375;-67
2022/06/20 07:25:36;;;;;;;3.70;1.58;;;22.50;56.10;;;;;;4430601;32;20082;-67
2022/06/20 07:28:13;;;;;;;5.30;1.40;;;22.50;56.00;;;;;;4431344;32;20832;-68
2022/06/20 07:30:51;;;;;;;5.15;1.30;;;22.50;55.80;;;;;;4430797;32;20110;-68
2022/06/20 07:33:34;;;;;;;5.30;1.50;;;22.60;55.80;;;;;;4431142;32;20509;-67
2022/06/20 07:36:03;;;;;;;4.40;1.35;;;22.60;55.60;;;;;;4431031;32;20176;-67
2022/06/20 07:38:38;;;;;;;5.15;1.65;;;22.60;55.60;;;;;;4416679;32;20079;-68
2022/06/20 07:41:47;;;;;;;3.63;1.38;;;22.60;55.60;;;;;;4419217;32;20070;-67
2022/06/20 07:44:42;;;;;;;3.33;1.23;;;22.60;55.60;;;;;;4419394;32;20078;-68
2022/06/20 07:47:16;;;;;;;3.33;1.08;;;22.50;55.50;;;;;;4431074;32;20208;-67
2022/06/20 07:50:10;;;;;;;2.50;1.10;;;22.50;56.40;;;;;;4419182;32;20216;-67
2022/06/20 07:53:19;;;;;;;5.60;1.10;;;22.50;55.40;;;;;;4418767;32;20097;-67
2022/06/20 07:55:52;;;;;;;3.30;1.10;;;22.50;55.20;;;;;;4430909;32;20082;-67
2022/06/20 07:58:43;;;;;;;2.53;1.15;;;22.50;55.20;;;;;;4419292;32;20374;-67
2022/06/20 08:01:28;;;;;;;2.78;1.27;;;22.50;55.00;;;;;;4430884;32;20089;-67
2022/06/20 08:03:58;;;;;;;5.63;1.75;;;22.60;55.10;;;;;;4430351;32;20087;-67
2022/06/20 08:06:54;;;;;;;3.60;1.30;;;22.60;55.00;;;;;;4418763;32;20169;-67
2022/06/20 08:09:20;;;;;;;5.03;1.10;;;22.60;54.90;;;;;;4430526;32;20224;-67
2022/06/20 08:12:33;;;;;;;2.78;1.08;;;22.60;54.90;;;;;;4419064;32;20221;-68
2022/06/20 08:15:20;;;;;;;7.47;1.48;;;22.60;54.80;;;;;;4430321;32;20075;-68
2022/06/20 08:17:46;;;;;;;5.07;1.20;;;22.60;54.60;;;;;;4430313;32;20092;-68
2022/06/20 08:20:12;;;;;;;3.75;1.20;;;22.70;54.60;;;;;;4430067;32;20079;-68
2022/06/20 08:22:49;;;;;;;5.82;1.35;;;22.70;54.50;;;;;;4430195;32;20093;-69
2022/06/20 08:25:41;;;;;;;3.03;1.00;;;22.70;54.50;;;;;;4418612;32;20159;-68
2022/06/20 08:28:18;;;;;;;6.18;1.38;;;22.80;54.50;;;;;;4430435;32;20089;-67
2022/06/20 08:31:13;;;;;;;3.45;1.38;;;22.80;54.40;;;;;;4430232;32;20533;-67
2022/06/20 08:33:56;;;;;;;4.13;1.17;;;22.80;54.30;;;;;;4430487;32;20074;-68
2022/06/20 08:36:26;;;;;;;3.30;1.10;;;22.90;54.20;;;;;;4430158;32;20459;-67
2022/06/20 08:39:18;;;;;;;4.53;1.45;;;22.90;54.10;;;;;;4418346;32;20304;-68
2022/06/20 08:42:17;;;;;;;4.55;1.60;;;22.90;54.00;;;;;;4428144;32;20094;-67
2022/06/20 08:45:11;;;;;;;5.93;1.50;;;22.90;53.80;;;;;;4429801;32;20523;-67
2022/06/20 08:47:46;;;;;;;5.00;1.40;;;22.90;53.70;;;;;;4429435;32;20133;-69
2022/06/20 08:50:51;;;;;;;6.20;1.42;;;22.90;53.80;;;;;;4429919;32;20070;-68
2022/06/20 08:53:25;;;;;;;6.47;1.55;;;23.00;54.00;;;;;;4429656;32;20156;-68
2022/06/20 08:56:22;;;;;;;3.67;1.30;;;23.00;54.00;;;;;;4429648;32;20070;-67
2022/06/20 08:59:14;;;;;;;6.53;1.42;;;23.00;53.90;;;;;;4418251;32;20086;-67
2022/06/20 09:01:48;;;;;;;4.75;1.35;;;23.10;53.90;;;;;;4429601;32;20100;-68
2022/06/20 09:04:17;;;;;;;;;;;23.10;53.80;;;;;;4416226;32;20063;-68
2022/06/20 09:06:48;;;;;;;5.63;1.20;;;23.10;53.80;;;;;;4429491;32;20475;-68
2022/06/20 09:10:05;;;;;;;5.57;1.50;;;23.10;53.90;;;;;;4418300;32;20074;-68
2022/06/20 09:12:43;;;;;;;5.05;1.58;;;23.10;54.10;;;;;;4429880;32;20500;-67
2022/06/20 09:15:27;;;;;;;6.20;1.40;;;23.10;53.90;;;;;;4429604;32;20062;-67
2022/06/20 09:18:13;;;;;;;3.40;0.80;;;23.10;53.90;;;;;;4417778;32;20104;-68
2022/06/20 09:20:43;;;;;;;4.22;1.30;;;23.10;53.80;;;;;;4429442;32;20083;-67
2022/06/20 09:23:21;;;;;;;6.78;1.30;;;23.10;53.80;;;;;;4429850;32;20500;-67
2022/06/20 09:25:55;;;;;;;5.15;1.45;;;23.20;53.90;;;;;;4429112;32;20093;-68
2022/06/20 09:28:46;;;;;;;5.25;1.38;;;23.20;53.90;;;;;;4428201;32;20067;-68
2022/06/20 09:31:50;;;;;;;4.60;1.10;;;23.20;53.90;;;;;;4429370;32;20074;-67
2022/06/20 09:34:34;;;;;;;4.03;1.10;;;23.20;53.60;;;;;;4397767;32;20066;-68
2022/06/20 09:37:27;;;;;;;4.00;1.02;;;23.20;53.70;;;;;;4429133;32;20088;-67
2022/06/20 09:40:26;;;;;;;3.85;1.20;;;23.20;53.70;;;;;;4429277;32;20253;-71
2022/06/20 09:43:10;;;;;;;2.70;0.95;;;23.20;53.70;;;;;;4429462;32;20122;-67
2022/06/20 09:46:02;;;;;;;5.60;1.55;;;23.20;53.50;;;;;;4429360;32;20082;-68
2022/06/20 09:49:27;;;;;;;5.95;1.27;;;23.20;53.50;;;;;;4417862;32;20416;-67
2022/06/20 09:52:34;;;;;;;4.10;1.10;;;23.20;53.20;;;;;;4359588;32;20450;-68
2022/06/20 09:55:15;;;;;;;6.00;1.40;;;23.20;53.20;;;;;;4369977;32;20068;-68
2022/06/20 09:57:53;;;;;;;7.38;1.63;;;23.20;53.00;;;;;;4409341;32;20185;-68
2022/06/20 10:01:10;;;;;;;2.78;1.13;;;23.20;52.90;;;;;;4420489;32;20070;-69
2022/06/20 10:03:57;;;;;;;4.07;1.05;;;23.20;52.80;;;;;;4432479;32;20085;-69
2022/06/20 10:06:32;;;;;;;4.57;1.27;;;23.20;52.70;;;;;;4431904;32;20595;-68
2022/06/20 10:09:29;;;;;;;4.07;1.35;;;23.20;52.70;;;;;;4420935;32;20080;-69
2022/06/20 10:12:53;;;;;;;3.53;1.00;;;23.20;52.60;;;;;;4420365;32;20094;-68
2022/06/20 10:15:42;;;;;;;2.75;1.23;;;23.20;52.60;;;;;;4430393;32;20160;-68
2022/06/20 10:18:42;;;;;;;2.90;1.10;;;23.20;52.60;;;;;;4431810;32;20082;-68
2022/06/20 10:21:40;;;;;;;4.55;1.20;;;23.20;52.40;;;;;;4420344;32;20070;-69
2022/06/20 10:24:21;;;;;;;2.30;1.10;;;23.20;52.30;;;;;;4432015;32;20610;-67
2022/06/20 10:27:12;;;;;;;3.67;1.20;;;23.20;52.20;;;;;;4420154;32;20089;-67
2022/06/20 10:29:59;;;;;;;3.67;1.50;;;23.20;52.30;;;;;;4431592;32;20097;-67
2022/06/20 10:32:52;;;;;;;2.92;1.00;;;23.20;52.20;;;;;;4431668;32;20110;-68
2022/06/20 10:35:37;;;;;;;5.57;1.60;;;23.20;52.30;;;;;;4431916;32;20129;-69
2022/06/20 10:38:07;;;;;;;1.70;0.90;;;23.20;52.10;;;;;;4431556;32;20237;-68
2022/06/20 10:40:39;;;;;;;4.22;1.45;;;23.20;52.20;;;;;;4431482;32;20118;-68
2022/06/20 10:43:09;;;;;;;4.05;1.10;;;23.20;52.10;;;;;;4431676;32;20176;-68
2022/06/20 10:45:57;;;;;;;4.10;1.35;;;23.20;52.00;;;;;;4431849;32;20614;-67
2022/06/20 10:49:15;;;;;;;3.28;1.20;;;23.20;53.00;;;;;;4419621;32;20448;-67
2022/06/20 10:52:03;;;;;;;4.28;1.27;;;23.20;52.20;;;;;;4431753;32;20082;-67
2022/06/20 10:54:59;;;;;;;4.25;1.20;;;23.20;52.20;;;;;;4431439;32;20093;-67
2022/06/20 10:58:06;;;;;;;4.25;1.23;;;23.20;52.30;;;;;;4420155;32;20540;-68
2022/06/20 11:00:39;;;;;;;6.53;1.00;;;23.30;52.30;;;;;;4431441;32;20081;-67
2022/06/20 11:03:29;;;;;;;6.40;1.40;;;23.30;52.20;;;;;;4431743;32;20481;-67
2022/06/20 11:06:07;;;;;;;5.90;1.40;;;23.30;52.20;;;;;;4431000;32;20058;-68
2022/06/20 11:09:01;;;;;;;7.30;1.52;;;23.30;52.30;;;;;;4409264;32;20304;-67
2022/06/20 11:11:46;;;;;;;7.65;1.52;;;23.30;52.20;;;;;;4431287;32;20576;-67
2022/06/20 11:14:37;;;;;;;;;;;23.30;52.30;;;;;;4420560;32;20132;-68
2022/06/20 11:17:37;;;;;;;2.95;1.20;;;23.30;52.30;;;;;;4419913;32;20029;-68
2022/06/20 11:20:38;;;;;;;4.50;1.30;;;23.20;52.30;;;;;;4419744;32;20075;-67
2022/06/20 11:23:29;;;;;;;5.38;1.23;;;23.20;52.20;;;;;;4431151;32;20086;-67
2022/06/20 11:26:25;;;;;;;4.60;1.27;;;23.20;52.20;;;;;;4419420;32;20078;-67
2022/06/20 11:29:22;;;;;;;6.07;1.50;;;23.20;52.20;;;;;;4430847;32;20189;-67
2022/06/20 11:32:13;;;;;;;2.35;1.08;;;23.30;52.40;;;;;;4431508;32;20082;-67
2022/06/20 11:34:38;;;;;;;3.53;1.20;;;23.20;52.40;;;;;;4430963;32;20074;-68
2022/06/20 11:37:47;;;;;;;3.25;1.20;;;23.20;52.30;;;;;;4419331;32;20079;-68
2022/06/20 11:40:32;;;;;;;4.97;1.55;;;23.20;52.10;;;;;;4430905;32;20141;-68
2022/06/20 11:44:13;;;;;;;4.40;1.35;;;23.20;52.20;;;;;;4419427;32;20129;-69
2022/06/20 11:47:34;;;;;;;4.40;1.80;;;23.20;52.30;;;;;;4375819;32;20082;-68
2022/06/20 11:50:40;;;;;;;3.80;1.30;;;23.20;52.40;;;;;;4357652;32;20089;-67
2022/06/20 11:54:00;;;;;;;4.45;1.30;;;23.20;52.30;;;;;;4419027;32;20504;-67
2022/06/20 11:56:44;;;;;;;4.82;1.20;;;23.20;52.10;;;;;;4430939;32;20086;-68
2022/06/20 11:59:54;;;;;;;3.35;1.52;;;23.20;52.30;;;;;;4418960;32;20168;-68
2022/06/20 12:02:56;;;;;;;3.05;1.00;;;23.20;52.10;;;;;;4430628;32;20117;-67
2022/06/20 12:05:33;;;;;;;3.95;1.17;;;23.20;52.10;;;;;;4430665;32;20093;-68
2022/06/20 12:08:29;;;;;;;4.03;1.23;;;23.20;52.20;;;;;;4418932;32;20133;-68
2022/06/20 12:10:59;;;;;;;4.55;1.27;;;23.20;52.20;;;;;;4430900;32;20172;-67
2022/06/20 12:13:51;;;;;;;3.35;1.20;;;23.20;52.20;;;;;;4418677;32;20389;-68
2022/06/20 12:17:00;;;;;;;5.80;1.23;;;23.20;52.20;;;;;;4419153;32;20582;-68
2022/06/20 12:26:04;;;;;;;5.43;1.38;;;23.20;52.10;;;;;;4410417;32;20097;-68
2022/06/20 12:28:35;;;;;;;3.67;1.45;;;23.20;52.10;;;;;;4430651;32;20515;-67
2022/06/20 12:31:11;;;;;;;5.70;1.75;;;23.20;52.10;;;;;;4430117;32;20492;-67
2022/06/20 12:33:55;;;;;;;6.35;1.30;;;23.20;52.20;;;;;;4430214;32;20078;-68
2022/06/20 12:37:03;;;;;;;3.47;1.40;;;23.30;52.40;;;;;;4429552;32;20090;-67
2022/06/20 12:39:41;;;;;;;5.50;1.40;;;23.30;52.50;;;;;;4429748;32;20578;-68
2022/06/20 12:42:29;;;;;;;4.78;1.40;;;23.20;52.50;;;;;;4430351;32;20484;-68
2022/06/20 12:45:19;;;;;;;5.97;1.55;;;23.20;52.40;;;;;;4429940;32;20408;-68
2022/06/20 12:48:16;;;;;;;3.65;1.30;;;23.20;52.40;;;;;;4429862;32;20267;-67
2022/06/20 12:51:11;;;;;;;6.28;1.38;;;23.20;52.40;;;;;;4418481;32;20227;-67
2022/06/20 12:54:34;;;;;;;3.63;1.40;;;23.20;52.40;;;;;;4418449;32;20141;-68
2022/06/20 12:57:19;;;;;;;3.42;1.30;;;23.30;52.50;;;;;;4429504;32;20078;-67
2022/06/20 12:59:51;;;;;;;6.25;1.40;;;23.30;52.50;;;;;;4430073;32;20424;-69
2022/06/20 13:02:39;;;;;;;3.90;1.35;;;23.30;52.40;;;;;;4429931;32;20128;-67
2022/06/20 13:05:36;;;;;;;8.13;1.70;;;23.30;52.40;;;;;;4429705;32;20086;-68
2022/06/20 13:08:40;;;;;;;4.10;1.33;;;23.30;52.40;;;;;;4418345;32;20082;-67
2022/06/20 13:11:32;;;;;;;5.20;1.25;;;23.30;52.30;;;;;;4429403;32;20090;-68
2022/06/20 13:14:32;;;;;;;6.30;1.40;;;23.30;52.30;;;;;;4407733;32;20109;-67
2022/06/20 13:17:10;;;;;;;5.32;1.42;;;23.30;52.40;;;;;;4429642;32;20085;-68
2022/06/20 13:19:39;;;;;;;4.78;1.10;;;23.30;52.30;;;;;;4429825;32;20136;-71
2022/06/20 13:22:28;;;;;;;4.32;1.30;;;23.30;52.30;;;;;;4429524;32;20078;-69
2022/06/20 13:25:01;;;;;;;6.40;1.45;;;23.30;52.10;;;;;;4428691;32;20517;-68
2022/06/20 13:27:57;;;;;;;4.07;1.20;;;23.30;52.10;;;;;;4418262;32;20208;-69
2022/06/20 13:30:59;;;;;;;5.53;1.20;;;23.30;52.20;;;;;;4429653;32;20699;-69
2022/06/20 13:33:50;;;;;;;2.90;1.13;;;23.40;52.20;;;;;;4429887;32;20172;-69
2022/06/20 13:36:43;;;;;;;5.72;1.40;;;23.30;52.10;;;;;;4429840;32;20086;-69
2022/06/20 13:39:42;;;;;;;3.63;1.15;;;23.40;52.00;;;;;;4402227;32;20169;-69
2022/06/20 13:42:36;;;;;;;3.05;1.20;;;23.30;52.00;;;;;;4414161;32;20094;-69
2022/06/20 13:45:45;;;;;;;4.70;1.40;;;23.40;51.90;;;;;;4413352;32;20098;-68
2022/06/20 13:48:34;;;;;;;4.20;1.23;;;23.40;51.90;;;;;;4413208;32;20074;-69
2022/06/20 13:51:34;;;;;;;4.93;1.30;;;23.40;51.90;;;;;;4413497;32;20144;-69
2022/06/20 13:54:33;;;;;;;6.00;1.33;;;23.40;51.90;;;;;;4413368;32;20510;-69
2022/06/20 13:57:29;;;;;;;4.18;1.20;;;23.40;51.80;;;;;;4423723;32;20070;-69
2022/06/20 14:00:05;;;;;;;3.53;1.27;;;23.40;51.80;;;;;;4413834;32;20169;-69
2022/06/20 14:02:33;;;;;;;3.55;1.23;;;23.40;51.80;;;;;;4414225;32;20287;-69
2022/06/20 14:05:24;;;;;;;3.30;1.40;;;23.40;51.80;;;;;;4414073;32;20094;-69
2022/06/20 14:08:22;;;;;;;6.30;1.67;;;23.40;51.70;;;;;;4412651;32;20164;-70
2022/06/20 14:11:24;;;;;;;4.18;1.23;;;23.40;51.80;;;;;;4413263;32;20579;-69
2022/06/20 14:13:51;;;;;;;3.40;1.15;;;23.40;51.80;;;;;;4413658;32;20126;-69
2022/06/20 14:16:38;;;;;;;4.63;1.17;;;23.40;51.70;;;;;;4413173;32;20094;-70